sensor_id;sensor_type;location;lat;lon;timestamp;P1;durP1;ratioP1;P2;durP2;ratioP2
51384;SDS011;37478;55.682;37.462;2022-08-06T00:01:05;18.50;;;12.52;;
51384;SDS011;37478;55.682;37.462;2022-08-06T00:03:30;23.52;;;13.38;;
51384;SDS011;37478;55.682;37.462;2022-08-06T00:05:55;18.88;;;11.85;;
51384;SDS011;37478;55.682;37.462;2022-08-06T00:08:21;18.58;;;12.30;;
51384;SDS011;37478;55.682;37.462;2022-08-06T00:10:46;19.25;;;12.50;;
51384;SDS011;37478;55.682;37.462;2022-08-06T00:13:11;18.27;;;12.32;;
51384;SDS011;37478;55.682;37.462;2022-08-06T00:15:37;19.70;;;11.93;;
51384;SDS011;37478;55.682;37.462;2022-08-06T00:18:02;21.08;;;13.20;;
51384;SDS011;37478;55.682;37.462;2022-08-06T00:20:27;17.98;;;12.13;;
51384;SDS011;37478;55.682;37.462;2022-08-06T00:22:53;18.55;;;12.52;;
51384;SDS011;37478;55.682;37.462;2022-08-06T00:25:18;22.20;;;12.52;;
51384;SDS011;37478;55.682;37.462;2022-08-06T00:27:43;20.50;;;12.00;;
51384;SDS011;37478;55.682;37.462;2022-08-06T00:30:09;18.90;;;12.32;;
51384;SDS011;37478;55.682;37.462;2022-08-06T00:32:34;17.08;;;11.98;;
51384;SDS011;37478;55.682;37.462;2022-08-06T00:35:00;16.65;;;12.25;;
51384;SDS011;37478;55.682;37.462;2022-08-06T00:37:25;18.42;;;12.18;;
51384;SDS011;37478;55.682;37.462;2022-08-06T00:39:53;20.38;;;12.15;;
51384;SDS011;37478;55.682;37.462;2022-08-06T00:42:19;20.95;;;12.32;;
51384;SDS011;37478;55.682;37.462;2022-08-06T00:44:44;14.00;;;11.55;;
51384;SDS011;37478;55.682;37.462;2022-08-06T00:47:10;19.77;;;11.70;;
51384;SDS011;37478;55.682;37.462;2022-08-06T00:49:35;17.77;;;11.32;;
51384;SDS011;37478;55.682;37.462;2022-08-06T00:52:00;23.30;;;12.52;;
51384;SDS011;37478;55.682;37.462;2022-08-06T00:54:26;17.33;;;12.02;;
51384;SDS011;37478;55.682;37.462;2022-08-06T00:56:51;18.83;;;12.27;;
51384;SDS011;37478;55.682;37.462;2022-08-06T00:59:16;15.80;;;11.48;;
51384;SDS011;37478;55.682;37.462;2022-08-06T01:01:42;14.38;;;11.70;;
51384;SDS011;37478;55.682;37.462;2022-08-06T01:04:07;22.20;;;12.20;;
51384;SDS011;37478;55.682;37.462;2022-08-06T01:06:32;20.98;;;12.98;;
51384;SDS011;37478;55.682;37.462;2022-08-06T01:08:57;17.30;;;12.25;;
51384;SDS011;37478;55.682;37.462;2022-08-06T01:11:23;17.60;;;12.10;;
51384;SDS011;37478;55.682;37.462;2022-08-06T01:13:48;17.02;;;12.85;;
51384;SDS011;37478;55.682;37.462;2022-08-06T01:16:25;17.98;;;11.85;;
51384;SDS011;37478;55.682;37.462;2022-08-06T01:21:34;18.75;;;12.73;;
51384;SDS011;37478;55.682;37.462;2022-08-06T01:26:36;18.45;;;12.23;;
51384;SDS011;37478;55.682;37.462;2022-08-06T01:31:52;21.60;;;11.75;;
51384;SDS011;37478;55.682;37.462;2022-08-06T01:34:23;17.92;;;12.55;;
51384;SDS011;37478;55.682;37.462;2022-08-06T01:36:51;18.13;;;12.15;;
51384;SDS011;37478;55.682;37.462;2022-08-06T01:39:19;18.63;;;12.00;;
51384;SDS011;37478;55.682;37.462;2022-08-06T01:41:48;18.83;;;11.23;;
51384;SDS011;37478;55.682;37.462;2022-08-06T01:44:15;19.98;;;12.65;;
51384;SDS011;37478;55.682;37.462;2022-08-06T01:46:46;20.88;;;13.75;;
51384;SDS011;37478;55.682;37.462;2022-08-06T01:49:12;20.15;;;12.73;;
51384;SDS011;37478;55.682;37.462;2022-08-06T01:51:40;17.13;;;12.75;;
51384;SDS011;37478;55.682;37.462;2022-08-06T01:54:08;18.02;;;12.02;;
51384;SDS011;37478;55.682;37.462;2022-08-06T01:56:35;22.30;;;12.30;;
51384;SDS011;37478;55.682;37.462;2022-08-06T01:59:02;19.40;;;12.18;;
51384;SDS011;37478;55.682;37.462;2022-08-06T02:01:29;19.00;;;13.10;;
51384;SDS011;37478;55.682;37.462;2022-08-06T02:03:56;21.85;;;13.35;;
51384;SDS011;37478;55.682;37.462;2022-08-06T02:06:28;17.10;;;11.93;;
51384;SDS011;37478;55.682;37.462;2022-08-06T02:08:55;17.33;;;12.15;;
51384;SDS011;37478;55.682;37.462;2022-08-06T02:11:20;17.05;;;11.93;;
51384;SDS011;37478;55.682;37.462;2022-08-06T02:13:46;21.13;;;11.73;;
51384;SDS011;37478;55.682;37.462;2022-08-06T02:16:12;16.33;;;12.02;;
51384;SDS011;37478;55.682;37.462;2022-08-06T02:18:39;19.17;;;12.65;;
51384;SDS011;37478;55.682;37.462;2022-08-06T02:21:10;19.58;;;11.77;;
51384;SDS011;37478;55.682;37.462;2022-08-06T02:23:37;14.80;;;12.27;;
51384;SDS011;37478;55.682;37.462;2022-08-06T02:26:03;21.52;;;12.52;;
51384;SDS011;37478;55.682;37.462;2022-08-06T02:28:29;16.50;;;11.60;;
51384;SDS011;37478;55.682;37.462;2022-08-06T02:30:57;17.02;;;12.63;;
51384;SDS011;37478;55.682;37.462;2022-08-06T02:33:23;19.75;;;12.65;;
51384;SDS011;37478;55.682;37.462;2022-08-06T02:35:49;15.80;;;11.15;;
51384;SDS011;37478;55.682;37.462;2022-08-06T02:38:39;17.10;;;12.43;;
51384;SDS011;37478;55.682;37.462;2022-08-06T02:41:02;17.55;;;11.88;;
51384;SDS011;37478;55.682;37.462;2022-08-06T02:43:36;19.75;;;12.60;;
51384;SDS011;37478;55.682;37.462;2022-08-06T02:46:12;19.38;;;13.02;;
51384;SDS011;37478;55.682;37.462;2022-08-06T02:48:49;20.90;;;12.55;;
51384;SDS011;37478;55.682;37.462;2022-08-06T02:51:17;15.30;;;11.90;;
51384;SDS011;37478;55.682;37.462;2022-08-06T02:53:54;17.10;;;11.82;;
51384;SDS011;37478;55.682;37.462;2022-08-06T02:56:19;19.13;;;13.63;;
51384;SDS011;37478;55.682;37.462;2022-08-06T02:58:47;23.60;;;14.45;;
51384;SDS011;37478;55.682;37.462;2022-08-06T03:01:15;19.17;;;12.88;;
51384;SDS011;37478;55.682;37.462;2022-08-06T03:03:42;20.83;;;13.43;;
51384;SDS011;37478;55.682;37.462;2022-08-06T03:06:08;17.63;;;12.60;;
51384;SDS011;37478;55.682;37.462;2022-08-06T03:08:34;19.15;;;13.02;;
51384;SDS011;37478;55.682;37.462;2022-08-06T03:11:00;19.95;;;13.32;;
51384;SDS011;37478;55.682;37.462;2022-08-06T03:13:26;18.90;;;13.32;;
51384;SDS011;37478;55.682;37.462;2022-08-06T03:15:52;22.50;;;14.00;;
51384;SDS011;37478;55.682;37.462;2022-08-06T03:18:19;17.05;;;13.07;;
51384;SDS011;37478;55.682;37.462;2022-08-06T03:20:46;15.88;;;13.15;;
51384;SDS011;37478;55.682;37.462;2022-08-06T03:23:11;18.38;;;12.73;;
51384;SDS011;37478;55.682;37.462;2022-08-06T03:25:38;18.95;;;14.68;;
51384;SDS011;37478;55.682;37.462;2022-08-06T03:28:04;23.17;;;14.00;;
51384;SDS011;37478;55.682;37.462;2022-08-06T03:30:30;21.92;;;13.82;;
51384;SDS011;37478;55.682;37.462;2022-08-06T03:32:57;19.55;;;13.00;;
51384;SDS011;37478;55.682;37.462;2022-08-06T03:35:23;22.92;;;13.70;;
51384;SDS011;37478;55.682;37.462;2022-08-06T03:37:48;18.90;;;13.52;;
51384;SDS011;37478;55.682;37.462;2022-08-06T03:40:14;20.13;;;13.13;;
51384;SDS011;37478;55.682;37.462;2022-08-06T03:42:42;20.77;;;14.02;;
51384;SDS011;37478;55.682;37.462;2022-08-06T03:45:07;20.65;;;14.50;;
51384;SDS011;37478;55.682;37.462;2022-08-06T03:47:34;20.05;;;13.75;;
51384;SDS011;37478;55.682;37.462;2022-08-06T03:52:32;24.08;;;13.80;;
51384;SDS011;37478;55.682;37.462;2022-08-06T03:55:01;18.20;;;12.90;;
51384;SDS011;37478;55.682;37.462;2022-08-06T03:57:27;22.55;;;13.75;;
51384;SDS011;37478;55.682;37.462;2022-08-06T03:59:56;20.80;;;13.05;;
51384;SDS011;37478;55.682;37.462;2022-08-06T04:02:29;25.30;;;14.05;;
51384;SDS011;37478;55.682;37.462;2022-08-06T04:04:55;19.77;;;14.80;;
51384;SDS011;37478;55.682;37.462;2022-08-06T04:07:20;22.13;;;14.02;;
51384;SDS011;37478;55.682;37.462;2022-08-06T04:09:46;22.08;;;14.18;;
51384;SDS011;37478;55.682;37.462;2022-08-06T04:12:12;18.77;;;14.80;;
51384;SDS011;37478;55.682;37.462;2022-08-06T04:14:38;22.80;;;12.95;;
51384;SDS011;37478;55.682;37.462;2022-08-06T04:17:03;17.80;;;14.68;;
51384;SDS011;37478;55.682;37.462;2022-08-06T04:19:29;23.23;;;14.93;;
51384;SDS011;37478;55.682;37.462;2022-08-06T04:21:55;17.38;;;13.13;;
51384;SDS011;37478;55.682;37.462;2022-08-06T04:24:20;21.70;;;13.93;;
51384;SDS011;37478;55.682;37.462;2022-08-06T04:26:47;19.13;;;14.07;;
51384;SDS011;37478;55.682;37.462;2022-08-06T04:29:15;21.83;;;14.05;;
51384;SDS011;37478;55.682;37.462;2022-08-06T04:31:42;17.98;;;13.65;;
51384;SDS011;37478;55.682;37.462;2022-08-06T04:34:08;19.58;;;13.40;;
51384;SDS011;37478;55.682;37.462;2022-08-06T04:36:33;18.55;;;14.13;;
51384;SDS011;37478;55.682;37.462;2022-08-06T04:38:59;19.42;;;13.82;;
51384;SDS011;37478;55.682;37.462;2022-08-06T04:41:24;19.73;;;12.77;;
51384;SDS011;37478;55.682;37.462;2022-08-06T04:43:50;17.67;;;12.95;;
51384;SDS011;37478;55.682;37.462;2022-08-06T04:46:16;17.58;;;12.65;;
51384;SDS011;37478;55.682;37.462;2022-08-06T04:48:41;22.98;;;13.45;;
51384;SDS011;37478;55.682;37.462;2022-08-06T04:51:07;16.60;;;13.00;;
51384;SDS011;37478;55.682;37.462;2022-08-06T04:53:39;17.13;;;12.85;;
51384;SDS011;37478;55.682;37.462;2022-08-06T04:56:05;20.17;;;13.05;;
51384;SDS011;37478;55.682;37.462;2022-08-06T04:58:30;17.67;;;14.07;;
51384;SDS011;37478;55.682;37.462;2022-08-06T05:00:55;20.58;;;13.40;;
51384;SDS011;37478;55.682;37.462;2022-08-06T05:03:21;18.70;;;12.48;;
51384;SDS011;37478;55.682;37.462;2022-08-06T05:05:51;19.30;;;13.13;;
51384;SDS011;37478;55.682;37.462;2022-08-06T05:08:17;23.88;;;13.57;;
51384;SDS011;37478;55.682;37.462;2022-08-06T05:10:47;18.17;;;12.93;;
51384;SDS011;37478;55.682;37.462;2022-08-06T05:13:13;25.15;;;19.33;;
51384;SDS011;37478;55.682;37.462;2022-08-06T05:15:43;15.57;;;12.75;;
51384;SDS011;37478;55.682;37.462;2022-08-06T05:18:15;17.75;;;12.98;;
51384;SDS011;37478;55.682;37.462;2022-08-06T05:20:49;20.88;;;13.55;;
51384;SDS011;37478;55.682;37.462;2022-08-06T05:23:39;19.98;;;12.68;;
51384;SDS011;37478;55.682;37.462;2022-08-06T05:26:02;19.25;;;13.93;;
51384;SDS011;37478;55.682;37.462;2022-08-06T05:28:28;16.00;;;13.18;;
51384;SDS011;37478;55.682;37.462;2022-08-06T05:30:55;22.92;;;13.73;;
51384;SDS011;37478;55.682;37.462;2022-08-06T05:35:48;20.27;;;13.23;;
51384;SDS011;37478;55.682;37.462;2022-08-06T05:38:14;19.63;;;13.45;;
51384;SDS011;37478;55.682;37.462;2022-08-06T05:40:39;19.25;;;13.02;;
51384;SDS011;37478;55.682;37.462;2022-08-06T05:43:04;17.77;;;13.25;;
51384;SDS011;37478;55.682;37.462;2022-08-06T05:45:30;19.58;;;13.55;;
51384;SDS011;37478;55.682;37.462;2022-08-06T05:47:56;22.17;;;12.52;;
51384;SDS011;37478;55.682;37.462;2022-08-06T05:50:24;16.30;;;12.13;;
51384;SDS011;37478;55.682;37.462;2022-08-06T05:52:55;16.52;;;12.13;;
51384;SDS011;37478;55.682;37.462;2022-08-06T05:55:25;20.98;;;12.20;;
51384;SDS011;37478;55.682;37.462;2022-08-06T05:57:56;17.23;;;12.50;;
51384;SDS011;37478;55.682;37.462;2022-08-06T06:00:23;18.73;;;13.18;;
51384;SDS011;37478;55.682;37.462;2022-08-06T06:02:49;17.45;;;12.30;;
51384;SDS011;37478;55.682;37.462;2022-08-06T06:05:16;18.73;;;12.70;;
51384;SDS011;37478;55.682;37.462;2022-08-06T06:07:43;21.38;;;13.15;;
51384;SDS011;37478;55.682;37.462;2022-08-06T06:10:08;17.60;;;12.80;;
51384;SDS011;37478;55.682;37.462;2022-08-06T06:12:34;19.85;;;12.10;;
51384;SDS011;37478;55.682;37.462;2022-08-06T06:15:03;17.80;;;12.10;;
51384;SDS011;37478;55.682;37.462;2022-08-06T06:17:48;26.23;;;12.65;;
51384;SDS011;37478;55.682;37.462;2022-08-06T06:20:20;19.17;;;11.85;;
51384;SDS011;37478;55.682;37.462;2022-08-06T06:25:15;16.27;;;12.32;;
51384;SDS011;37478;55.682;37.462;2022-08-06T06:28:16;21.40;;;13.48;;
51384;SDS011;37478;55.682;37.462;2022-08-06T06:30:45;18.45;;;12.23;;
51384;SDS011;37478;55.682;37.462;2022-08-06T06:33:22;15.85;;;11.63;;
51384;SDS011;37478;55.682;37.462;2022-08-06T06:35:59;22.27;;;12.45;;
51384;SDS011;37478;55.682;37.462;2022-08-06T06:41:14;20.42;;;11.82;;
51384;SDS011;37478;55.682;37.462;2022-08-06T06:48:42;21.38;;;11.60;;
51384;SDS011;37478;55.682;37.462;2022-08-06T06:51:10;18.65;;;11.82;;
51384;SDS011;37478;55.682;37.462;2022-08-06T06:53:45;23.10;;;11.48;;
51384;SDS011;37478;55.682;37.462;2022-08-06T06:56:13;15.52;;;12.05;;
51384;SDS011;37478;55.682;37.462;2022-08-06T06:58:45;18.17;;;11.63;;
51384;SDS011;37478;55.682;37.462;2022-08-06T07:01:12;21.33;;;12.55;;
51384;SDS011;37478;55.682;37.462;2022-08-06T07:03:39;22.98;;;11.70;;
51384;SDS011;37478;55.682;37.462;2022-08-06T07:06:05;25.65;;;12.65;;
51384;SDS011;37478;55.682;37.462;2022-08-06T07:08:33;20.73;;;11.48;;
51384;SDS011;37478;55.682;37.462;2022-08-06T07:10:59;20.50;;;11.02;;
51384;SDS011;37478;55.682;37.462;2022-08-06T07:13:26;15.35;;;9.85;;
51384;SDS011;37478;55.682;37.462;2022-08-06T07:15:52;16.17;;;11.00;;
51384;SDS011;37478;55.682;37.462;2022-08-06T07:18:18;15.45;;;9.95;;
51384;SDS011;37478;55.682;37.462;2022-08-06T07:20:43;15.02;;;10.02;;
51384;SDS011;37478;55.682;37.462;2022-08-06T07:23:09;15.70;;;10.63;;
51384;SDS011;37478;55.682;37.462;2022-08-06T07:25:40;15.05;;;10.88;;
51384;SDS011;37478;55.682;37.462;2022-08-06T07:28:06;22.77;;;11.20;;
51384;SDS011;37478;55.682;37.462;2022-08-06T07:30:33;15.05;;;10.95;;
51384;SDS011;37478;55.682;37.462;2022-08-06T07:32:59;18.30;;;10.88;;
51384;SDS011;37478;55.682;37.462;2022-08-06T07:35:24;19.75;;;10.15;;
51384;SDS011;37478;55.682;37.462;2022-08-06T07:37:53;15.70;;;10.88;;
51384;SDS011;37478;55.682;37.462;2022-08-06T07:40:26;13.45;;;10.70;;
51384;SDS011;37478;55.682;37.462;2022-08-06T07:42:54;18.30;;;10.32;;
51384;SDS011;37478;55.682;37.462;2022-08-06T07:45:21;18.38;;;10.45;;
51384;SDS011;37478;55.682;37.462;2022-08-06T07:47:48;14.45;;;9.05;;
51384;SDS011;37478;55.682;37.462;2022-08-06T07:50:14;17.23;;;9.73;;
51384;SDS011;37478;55.682;37.462;2022-08-06T07:52:39;14.20;;;8.23;;
51384;SDS011;37478;55.682;37.462;2022-08-06T07:55:06;12.73;;;9.35;;
51384;SDS011;37478;55.682;37.462;2022-08-06T07:57:32;16.25;;;9.27;;
51384;SDS011;37478;55.682;37.462;2022-08-06T07:59:57;13.60;;;8.85;;
51384;SDS011;37478;55.682;37.462;2022-08-06T08:02:23;14.95;;;9.40;;
51384;SDS011;37478;55.682;37.462;2022-08-06T08:04:49;11.50;;;9.50;;
51384;SDS011;37478;55.682;37.462;2022-08-06T08:07:33;18.00;;;9.02;;
51384;SDS011;37478;55.682;37.462;2022-08-06T08:09:59;14.43;;;8.65;;
51384;SDS011;37478;55.682;37.462;2022-08-06T08:12:25;15.48;;;9.60;;
51384;SDS011;37478;55.682;37.462;2022-08-06T08:14:50;14.55;;;9.60;;
51384;SDS011;37478;55.682;37.462;2022-08-06T08:17:16;14.75;;;9.98;;
51384;SDS011;37478;55.682;37.462;2022-08-06T08:19:42;11.02;;;9.30;;
51384;SDS011;37478;55.682;37.462;2022-08-06T08:22:12;15.25;;;9.35;;
51384;SDS011;37478;55.682;37.462;2022-08-06T08:24:42;16.30;;;10.10;;
51384;SDS011;37478;55.682;37.462;2022-08-06T08:27:09;13.73;;;9.93;;
51384;SDS011;37478;55.682;37.462;2022-08-06T08:29:35;13.15;;;8.90;;
51384;SDS011;37478;55.682;37.462;2022-08-06T08:32:01;16.27;;;9.32;;
51384;SDS011;37478;55.682;37.462;2022-08-06T08:34:27;17.13;;;9.25;;
51384;SDS011;37478;55.682;37.462;2022-08-06T08:36:53;16.70;;;9.68;;
51384;SDS011;37478;55.682;37.462;2022-08-06T08:39:18;20.63;;;9.98;;
51384;SDS011;37478;55.682;37.462;2022-08-06T08:41:49;14.60;;;9.43;;
51384;SDS011;37478;55.682;37.462;2022-08-06T08:44:14;13.30;;;9.52;;
51384;SDS011;37478;55.682;37.462;2022-08-06T08:46:45;13.55;;;9.32;;
51384;SDS011;37478;55.682;37.462;2022-08-06T08:49:24;11.35;;;9.43;;
51384;SDS011;37478;55.682;37.462;2022-08-06T08:51:50;12.70;;;8.90;;
51384;SDS011;37478;55.682;37.462;2022-08-06T08:54:18;13.43;;;8.05;;
51384;SDS011;37478;55.682;37.462;2022-08-06T08:56:46;9.05;;;7.63;;
51384;SDS011;37478;55.682;37.462;2022-08-06T08:59:11;16.38;;;8.48;;
51384;SDS011;37478;55.682;37.462;2022-08-06T09:01:37;9.32;;;7.88;;
51384;SDS011;37478;55.682;37.462;2022-08-06T09:04:04;10.25;;;7.68;;
51384;SDS011;37478;55.682;37.462;2022-08-06T09:06:30;10.25;;;6.07;;
51384;SDS011;37478;55.682;37.462;2022-08-06T09:08:58;8.85;;;6.50;;
51384;SDS011;37478;55.682;37.462;2022-08-06T09:11:28;20.25;;;7.68;;
51384;SDS011;37478;55.682;37.462;2022-08-06T09:13:53;12.05;;;6.30;;
51384;SDS011;37478;55.682;37.462;2022-08-06T09:16:19;9.35;;;7.10;;
51384;SDS011;37478;55.682;37.462;2022-08-06T09:18:44;16.95;;;8.35;;
51384;SDS011;37478;55.682;37.462;2022-08-06T09:21:09;9.73;;;7.03;;
51384;SDS011;37478;55.682;37.462;2022-08-06T09:23:36;8.95;;;6.90;;
51384;SDS011;37478;55.682;37.462;2022-08-06T09:26:03;10.95;;;6.97;;
51384;SDS011;37478;55.682;37.462;2022-08-06T09:28:50;16.17;;;7.63;;
51384;SDS011;37478;55.682;37.462;2022-08-06T09:31:15;13.35;;;7.60;;
51384;SDS011;37478;55.682;37.462;2022-08-06T09:36:41;17.05;;;12.43;;
51384;SDS011;37478;55.682;37.462;2022-08-06T09:39:07;15.13;;;9.15;;
51384;SDS011;37478;55.682;37.462;2022-08-06T09:41:32;13.20;;;7.80;;
51384;SDS011;37478;55.682;37.462;2022-08-06T09:44:00;9.35;;;7.72;;
51384;SDS011;37478;55.682;37.462;2022-08-06T09:46:40;10.77;;;7.25;;
51384;SDS011;37478;55.682;37.462;2022-08-06T09:49:07;9.23;;;7.85;;
51384;SDS011;37478;55.682;37.462;2022-08-06T09:51:32;11.93;;;7.63;;
51384;SDS011;37478;55.682;37.462;2022-08-06T09:54:00;10.13;;;7.70;;
51384;SDS011;37478;55.682;37.462;2022-08-06T09:56:25;7.65;;;6.85;;
51384;SDS011;37478;55.682;37.462;2022-08-06T09:59:01;11.82;;;7.50;;
51384;SDS011;37478;55.682;37.462;2022-08-06T10:01:27;11.38;;;7.10;;
51384;SDS011;37478;55.682;37.462;2022-08-06T10:03:57;10.20;;;7.68;;
51384;SDS011;37478;55.682;37.462;2022-08-06T10:06:22;17.35;;;7.95;;
51384;SDS011;37478;55.682;37.462;2022-08-06T10:08:49;10.07;;;7.35;;
51384;SDS011;37478;55.682;37.462;2022-08-06T10:11:15;17.98;;;7.72;;
51384;SDS011;37478;55.682;37.462;2022-08-06T10:13:45;11.60;;;7.53;;
51384;SDS011;37478;55.682;37.462;2022-08-06T10:16:18;9.32;;;6.75;;
51384;SDS011;37478;55.682;37.462;2022-08-06T10:18:48;10.32;;;7.25;;
51384;SDS011;37478;55.682;37.462;2022-08-06T10:21:17;8.75;;;6.63;;
51384;SDS011;37478;55.682;37.462;2022-08-06T10:23:46;10.32;;;7.13;;
51384;SDS011;37478;55.682;37.462;2022-08-06T10:26:12;10.90;;;7.57;;
51384;SDS011;37478;55.682;37.462;2022-08-06T10:28:39;9.93;;;7.15;;
51384;SDS011;37478;55.682;37.462;2022-08-06T10:31:07;10.35;;;7.32;;
51384;SDS011;37478;55.682;37.462;2022-08-06T10:33:35;10.68;;;7.50;;
51384;SDS011;37478;55.682;37.462;2022-08-06T10:36:07;11.45;;;7.35;;
51384;SDS011;37478;55.682;37.462;2022-08-06T10:38:33;9.57;;;6.90;;
51384;SDS011;37478;55.682;37.462;2022-08-06T10:40:59;11.90;;;7.72;;
51384;SDS011;37478;55.682;37.462;2022-08-06T10:43:25;9.85;;;6.43;;
51384;SDS011;37478;55.682;37.462;2022-08-06T10:45:51;8.98;;;6.82;;
51384;SDS011;37478;55.682;37.462;2022-08-06T10:48:16;11.27;;;8.00;;
51384;SDS011;37478;55.682;37.462;2022-08-06T10:50:42;12.60;;;6.82;;
51384;SDS011;37478;55.682;37.462;2022-08-06T10:53:08;8.00;;;7.20;;
51384;SDS011;37478;55.682;37.462;2022-08-06T10:55:35;10.15;;;7.63;;
51384;SDS011;37478;55.682;37.462;2022-08-06T10:58:00;10.93;;;7.57;;
51384;SDS011;37478;55.682;37.462;2022-08-06T11:00:26;10.48;;;8.07;;
51384;SDS011;37478;55.682;37.462;2022-08-06T11:05:22;11.95;;;8.00;;
51384;SDS011;37478;55.682;37.462;2022-08-06T11:07:52;9.20;;;7.65;;
51384;SDS011;37478;55.682;37.462;2022-08-06T11:10:37;9.00;;;6.75;;
51384;SDS011;37478;55.682;37.462;2022-08-06T11:13:28;17.77;;;7.57;;
51384;SDS011;37478;55.682;37.462;2022-08-06T11:15:52;15.82;;;7.25;;
51384;SDS011;37478;55.682;37.462;2022-08-06T11:18:17;9.18;;;6.57;;
51384;SDS011;37478;55.682;37.462;2022-08-06T11:20:43;10.52;;;6.97;;
51384;SDS011;37478;55.682;37.462;2022-08-06T11:28:06;12.02;;;7.25;;
51384;SDS011;37478;55.682;37.462;2022-08-06T11:30:45;15.85;;;7.88;;
51384;SDS011;37478;55.682;37.462;2022-08-06T11:33:11;15.07;;;11.02;;
51384;SDS011;37478;55.682;37.462;2022-08-06T11:38:08;10.77;;;6.97;;
51384;SDS011;37478;55.682;37.462;2022-08-06T11:49:21;11.50;;;6.95;;
51384;SDS011;37478;55.682;37.462;2022-08-06T11:51:40;14.23;;;7.80;;
51384;SDS011;37478;55.682;37.462;2022-08-06T11:56:35;11.13;;;7.57;;
51384;SDS011;37478;55.682;37.462;2022-08-06T11:59:11;9.60;;;6.90;;
51384;SDS011;37478;55.682;37.462;2022-08-06T12:01:46;8.57;;;7.22;;
51384;SDS011;37478;55.682;37.462;2022-08-06T12:06:36;11.95;;;6.93;;
51384;SDS011;37478;55.682;37.462;2022-08-06T12:09:06;14.95;;;7.25;;
51384;SDS011;37478;55.682;37.462;2022-08-06T12:11:31;10.25;;;7.15;;
51384;SDS011;37478;55.682;37.462;2022-08-06T12:13:58;14.70;;;7.63;;
51384;SDS011;37478;55.682;37.462;2022-08-06T12:16:28;10.45;;;7.82;;
51384;SDS011;37478;55.682;37.462;2022-08-06T12:18:54;11.77;;;7.28;;
51384;SDS011;37478;55.682;37.462;2022-08-06T12:21:19;8.60;;;7.45;;
51384;SDS011;37478;55.682;37.462;2022-08-06T12:23:48;9.32;;;7.28;;
51384;SDS011;37478;55.682;37.462;2022-08-06T12:26:13;9.05;;;6.88;;
51384;SDS011;37478;55.682;37.462;2022-08-06T12:28:39;13.25;;;7.05;;
51384;SDS011;37478;55.682;37.462;2022-08-06T12:31:04;14.93;;;7.70;;
51384;SDS011;37478;55.682;37.462;2022-08-06T12:33:29;9.93;;;6.65;;
51384;SDS011;37478;55.682;37.462;2022-08-06T12:35:56;9.32;;;6.45;;
51384;SDS011;37478;55.682;37.462;2022-08-06T12:38:26;13.00;;;7.55;;
51384;SDS011;37478;55.682;37.462;2022-08-06T12:43:20;15.82;;;6.68;;
51384;SDS011;37478;55.682;37.462;2022-08-06T12:45:46;20.40;;;7.88;;
51384;SDS011;37478;55.682;37.462;2022-08-06T12:48:11;15.32;;;6.97;;
51384;SDS011;37478;55.682;37.462;2022-08-06T12:50:41;9.95;;;6.53;;
51384;SDS011;37478;55.682;37.462;2022-08-06T12:55:35;9.70;;;6.10;;
51384;SDS011;37478;55.682;37.462;2022-08-06T12:58:02;11.77;;;7.45;;
51384;SDS011;37478;55.682;37.462;2022-08-06T13:00:28;18.25;;;7.00;;
51384;SDS011;37478;55.682;37.462;2022-08-06T13:02:53;14.07;;;7.47;;
51384;SDS011;37478;55.682;37.462;2022-08-06T13:05:19;18.20;;;7.40;;
51384;SDS011;37478;55.682;37.462;2022-08-06T13:07:44;20.00;;;6.82;;
51384;SDS011;37478;55.682;37.462;2022-08-06T13:10:12;9.18;;;6.07;;
51384;SDS011;37478;55.682;37.462;2022-08-06T13:12:38;8.63;;;6.38;;
51384;SDS011;37478;55.682;37.462;2022-08-06T13:15:12;7.05;;;6.30;;
51384;SDS011;37478;55.682;37.462;2022-08-06T13:17:39;13.13;;;6.63;;
51384;SDS011;37478;55.682;37.462;2022-08-06T13:20:04;13.98;;;6.55;;
51384;SDS011;37478;55.682;37.462;2022-08-06T13:22:30;10.88;;;6.72;;
51384;SDS011;37478;55.682;37.462;2022-08-06T13:25:11;9.88;;;7.13;;
51384;SDS011;37478;55.682;37.462;2022-08-06T13:27:37;14.88;;;8.60;;
51384;SDS011;37478;55.682;37.462;2022-08-06T13:30:04;9.18;;;5.82;;
51384;SDS011;37478;55.682;37.462;2022-08-06T13:32:29;15.23;;;6.40;;
51384;SDS011;37478;55.682;37.462;2022-08-06T13:34:55;18.90;;;7.73;;
51384;SDS011;37478;55.682;37.462;2022-08-06T13:37:40;10.68;;;5.55;;
51384;SDS011;37478;55.682;37.462;2022-08-06T13:40:06;10.40;;;6.63;;
51384;SDS011;37478;55.682;37.462;2022-08-06T13:42:31;8.80;;;6.47;;
51384;SDS011;37478;55.682;37.462;2022-08-06T13:44:56;12.38;;;6.85;;
51384;SDS011;37478;55.682;37.462;2022-08-06T13:47:26;8.32;;;6.72;;
51384;SDS011;37478;55.682;37.462;2022-08-06T13:49:51;15.93;;;7.25;;
51384;SDS011;37478;55.682;37.462;2022-08-06T13:52:17;16.58;;;7.68;;
51384;SDS011;37478;55.682;37.462;2022-08-06T13:54:42;18.27;;;7.37;;
51384;SDS011;37478;55.682;37.462;2022-08-06T13:57:07;19.07;;;7.60;;
51384;SDS011;37478;55.682;37.462;2022-08-06T13:59:33;8.27;;;6.40;;
51384;SDS011;37478;55.682;37.462;2022-08-06T14:02:00;9.18;;;6.97;;
51384;SDS011;37478;55.682;37.462;2022-08-06T14:04:28;8.48;;;6.80;;
51384;SDS011;37478;55.682;37.462;2022-08-06T14:06:55;17.10;;;8.13;;
51384;SDS011;37478;55.682;37.462;2022-08-06T14:09:23;13.02;;;6.90;;
51384;SDS011;37478;55.682;37.462;2022-08-06T14:11:50;10.52;;;7.32;;
51384;SDS011;37478;55.682;37.462;2022-08-06T14:14:16;10.07;;;7.03;;
51384;SDS011;37478;55.682;37.462;2022-08-06T14:16:41;10.70;;;6.88;;
51384;SDS011;37478;55.682;37.462;2022-08-06T14:19:07;18.25;;;7.20;;
51384;SDS011;37478;55.682;37.462;2022-08-06T14:21:32;8.32;;;6.13;;
51384;SDS011;37478;55.682;37.462;2022-08-06T14:23:57;8.90;;;5.50;;
51384;SDS011;37478;55.682;37.462;2022-08-06T14:26:23;8.27;;;5.70;;
51384;SDS011;37478;55.682;37.462;2022-08-06T14:28:48;11.23;;;6.10;;
51384;SDS011;37478;55.682;37.462;2022-08-06T14:31:13;14.07;;;7.93;;
51384;SDS011;37478;55.682;37.462;2022-08-06T14:33:39;9.03;;;6.20;;
51384;SDS011;37478;55.682;37.462;2022-08-06T14:36:05;9.95;;;6.45;;
51384;SDS011;37478;55.682;37.462;2022-08-06T14:38:30;10.40;;;6.60;;
51384;SDS011;37478;55.682;37.462;2022-08-06T14:40:56;18.00;;;6.60;;
51384;SDS011;37478;55.682;37.462;2022-08-06T14:43:39;7.18;;;6.07;;
51384;SDS011;37478;55.682;37.462;2022-08-06T14:46:24;16.65;;;6.60;;
51384;SDS011;37478;55.682;37.462;2022-08-06T14:48:49;10.98;;;7.00;;
51384;SDS011;37478;55.682;37.462;2022-08-06T14:51:15;13.77;;;6.27;;
51384;SDS011;37478;55.682;37.462;2022-08-06T14:53:40;10.23;;;6.18;;
51384;SDS011;37478;55.682;37.462;2022-08-06T14:56:05;8.00;;;6.13;;
51384;SDS011;37478;55.682;37.462;2022-08-06T14:58:31;9.82;;;6.32;;
51384;SDS011;37478;55.682;37.462;2022-08-06T15:00:56;12.33;;;6.13;;
51384;SDS011;37478;55.682;37.462;2022-08-06T15:03:21;10.82;;;6.72;;
51384;SDS011;37478;55.682;37.462;2022-08-06T15:05:47;11.03;;;6.57;;
51384;SDS011;37478;55.682;37.462;2022-08-06T15:08:12;10.20;;;5.53;;
51384;SDS011;37478;55.682;37.462;2022-08-06T15:10:37;15.55;;;6.70;;
51384;SDS011;37478;55.682;37.462;2022-08-06T15:13:03;10.25;;;7.00;;